Time;durP1;ratioP1;P1;durP2;ratioP2;P2;SDS_P1;SDS_P2;PMS_P1;PMS_P2;Temp;Humidity;BMP_temperature;BMP_pressure;BME280_temperature;BME280_humidity;BME280_pressure;Samples;Min_cycle;Max_cycle;Signal;HPM_P1;HPM_P2
2022/08/07 00:00:24;;;;;;;4.15;3.85;;;;;;;;;;5000831;28;20032;-69
2022/08/07 00:02:50;;;;;;;4.40;4.10;;;;;;;;;;5000550;28;20030;-70
2022/08/07 00:05:15;;;;;;;3.90;3.60;;;;;;;;;;4996268;28;20346;-70
2022/08/07 00:07:40;;;;;;;4.25;3.90;;;;;;;;;;4995820;28;20100;-71
2022/08/07 00:10:06;;;;;;;5.15;4.60;;;;;;;;;;5000074;28;20030;-69
2022/08/07 00:12:31;;;;;;;4.43;4.03;;;;;;;;;;4997386;28;20029;-69
2022/08/07 00:14:57;;;;;;;4.50;4.10;;;;;;;;;;4973230;28;20566;-70
2022/08/07 00:17:22;;;;;;;4.38;3.90;;;;;;;;;;4997204;28;20064;-70
2022/08/07 00:19:47;;;;;;;5.28;4.28;;;;;;;;;;5000205;28;20132;-70
2022/08/07 00:22:12;;;;;;;4.07;3.88;;;;;;;;;;4995661;28;20022;-70
2022/08/07 00:24:38;;;;;;;4.60;4.30;;;;;;;;;;4996318;28;20030;-70
2022/08/07 00:27:03;;;;;;;4.13;3.90;;;;;;;;;;5002465;28;20030;-69
2022/08/07 00:29:28;;;;;;;4.35;3.95;;;;;;;;;;4997079;28;20058;-69
2022/08/07 00:31:55;;;;;;;4.82;4.43;;;;;;;;;;4996279;28;20490;-69
2022/08/07 00:34:21;;;;;;;4.65;4.25;;;;;;;;;;4997411;28;20100;-69
2022/08/07 00:36:46;;;;;;;4.10;3.70;;;;;;;;;;5001103;28;20106;-70
2022/08/07 00:39:12;;;;;;;4.38;4.07;;;;;;;;;;4997069;28;20033;-70
2022/08/07 00:41:38;;;;;;;4.07;3.78;;;;;;;;;;4997290;28;20026;-71
2022/08/07 00:44:03;;;;;;;4.07;3.78;;;;;;;;;;5001700;28;20156;-70
2022/08/07 00:46:29;;;;;;;8.05;4.45;;;;;;;;;;4995532;28;20038;-71
2022/08/07 00:48:54;;;;;;;4.40;4.10;;;;;;;;;;4960101;28;20447;-70
2022/08/07 00:51:19;;;;;;;4.47;4.10;;;;;;;;;;5004874;28;20080;-70
2022/08/07 00:53:45;;;;;;;4.40;4.10;;;;;;;;;;5007104;28;20030;-70
2022/08/07 00:56:11;;;;;;;6.18;4.68;;;;;;;;;;5006291;28;20022;-70
2022/08/07 00:58:39;;;;;;;4.43;4.13;;;;;;;;;;4985513;28;20495;-70
2022/08/07 01:01:08;;;;;;;5.57;3.90;;;;;;;;;;5000028;28;20685;-71
2022/08/07 01:03:33;;;;;;;4.57;4.18;;;;;;;;;;5004971;28;20026;-70
2022/08/07 01:05:58;;;;;;;3.95;3.75;;;;;;;;;;5006539;28;20460;-71
2022/08/07 01:08:23;;;;;;;4.47;3.75;;;;;;;;;;5005825;28;20033;-70
2022/08/07 01:10:49;;;;;;;4.47;4.18;;;;;;;;;;5003765;28;20029;-71
2022/08/07 01:13:14;;;;;;;5.93;4.78;;;;;;;;;;4999288;28;20030;-71
2022/08/07 01:15:40;;;;;;;3.85;3.65;;;;;;;;;;5000393;28;20066;-70
2022/08/07 01:18:06;;;;;;;3.63;3.35;;;;;;;;;;5001929;28;20045;-71
2022/08/07 01:20:34;;;;;;;4.68;4.20;;;;;;;;;;4999596;28;20018;-70
2022/08/07 01:22:59;;;;;;;4.22;4.00;;;;;;;;;;5003218;28;20097;-70
2022/08/07 01:25:25;;;;;;;4.72;4.32;;;;;;;;;;4999347;28;20097;-70
2022/08/07 01:27:51;;;;;;;3.72;3.42;;;;;;;;;;5000640;28;20083;-71
2022/08/07 01:30:16;;;;;;;4.35;4.05;;;;;;;;;;5010887;28;20030;-70
2022/08/07 01:32:41;;;;;;;4.30;4.00;;;;;;;;;;5008031;28;20446;-70
2022/08/07 01:35:07;;;;;;;3.92;3.63;;;;;;;;;;5004887;28;20037;-70
2022/08/07 01:37:32;;;;;;;4.35;4.00;;;;;;;;;;4984372;28;20040;-70
2022/08/07 01:40:00;;;;;;;4.20;3.90;;;;;;;;;;4998473;28;20034;-70
2022/08/07 01:42:26;;;;;;;6.28;4.68;;;;;;;;;;4998788;28;20051;-70
2022/08/07 01:44:51;;;;;;;3.70;3.50;;;;;;;;;;5001051;28;20040;-71
2022/08/07 01:47:16;;;;;;;3.90;3.70;;;;;;;;;;5005871;28;20033;-71
2022/08/07 01:49:42;;;;;;;3.95;3.65;;;;;;;;;;5005754;28;20041;-70
2022/08/07 01:52:08;;;;;;;4.25;3.92;;;;;;;;;;5002417;28;20574;-69
2022/08/07 01:54:35;;;;;;;4.40;4.00;;;;;;;;;;4998610;28;20022;-69
2022/08/07 01:57:13;;;;;;;4.07;3.67;;;;;;;;;;5005294;28;20040;-70
2022/08/07 01:59:42;;;;;;;4.10;3.85;;;;;;;;;;5003646;28;20397;-70
2022/08/07 02:02:10;;;;;;;3.92;3.63;;;;;;;;;;5004981;28;20018;-70
2022/08/07 02:04:53;;;;;;;3.50;3.30;;;;;;;;;;5006381;28;20033;-70
2022/08/07 02:07:21;;;;;;;3.47;3.17;;;;;;;;;;4988946;28;20032;-69
2022/08/07 02:09:48;;;;;;;3.90;3.60;;;;;;;;;;5000782;28;20021;-70
2022/08/07 02:12:17;;;;;;;3.30;3.10;;;;;;;;;;4999946;28;20026;-70
2022/08/07 02:14:50;;;;;;;3.85;3.55;;;;;;;;;;5006829;28;20058;-71
2022/08/07 02:17:16;;;;;;;3.10;2.90;;;;;;;;;;5000098;28;20061;-70
2022/08/07 02:19:42;;;;;;;3.42;3.22;;;;;;;;;;5000554;28;20392;-70
2022/08/07 02:22:08;;;;;;;3.85;3.35;;;;;;;;;;5005565;28;20036;-70
2022/08/07 02:24:34;;;;;;;3.47;3.17;;;;;;;;;;4999344;28;20371;-69
2022/08/07 02:26:59;;;;;;;4.25;3.30;;;;;;;;;;4999418;28;20030;-69
2022/08/07 02:29:26;;;;;;;4.15;3.53;;;;;;;;;;5000965;28;20400;-69
2022/08/07 02:31:51;;;;;;;4.13;3.83;;;;;;;;;;4973737;28;20030;-70
2022/08/07 02:34:17;;;;;;;4.28;3.88;;;;;;;;;;5003126;28;20365;-71
2022/08/07 02:36:43;;;;;;;3.90;3.60;;;;;;;;;;5005208;28;20476;-71
2022/08/07 02:39:09;;;;;;;3.83;3.47;;;;;;;;;;5003435;28;20174;-70
2022/08/07 02:41:34;;;;;;;3.80;3.50;;;;;;;;;;4997234;28;20096;-70
2022/08/07 02:44:00;;;;;;;3.92;3.50;;;;;;;;;;4999056;28;20029;-70
2022/08/07 02:46:27;;;;;;;5.03;3.40;;;;;;;;;;4999310;28;20468;-69
2022/08/07 02:48:52;;;;;;;3.47;3.25;;;;;;;;;;4997269;28;20057;-69
2022/08/07 02:51:19;;;;;;;5.35;3.83;;;;;;;;;;4997310;28;20113;-70
2022/08/07 02:53:49;;;;;;;3.55;3.25;;;;;;;;;;4997299;28;20026;-70
2022/08/07 02:56:17;;;;;;;4.25;3.17;;;;;;;;;;5000864;28;20123;-70
2022/08/07 02:58:43;;;;;;;3.28;3.00;;;;;;;;;;4998636;28;20026;-70
2022/08/07 03:01:09;;;;;;;3.63;3.05;;;;;;;;;;4997289;28;20040;-70
2022/08/07 03:03:34;;;;;;;3.10;2.90;;;;;;;;;;4996946;28;20049;-70
2022/08/07 03:06:00;;;;;;;4.43;3.42;;;;;;;;;;4997102;28;20658;-70
2022/08/07 03:08:26;;;;;;;4.57;3.70;;;;;;;;;;4997228;28;20026;-70
2022/08/07 03:10:51;;;;;;;3.30;3.10;;;;;;;;;;4999572;28;20042;-70
2022/08/07 03:13:17;;;;;;;3.60;3.25;;;;;;;;;;4999702;28;20137;-72
2022/08/07 03:15:44;;;;;;;3.28;3.08;;;;;;;;;;4996521;28;20497;-70
2022/08/07 03:18:10;;;;;;;4.05;3.65;;;;;;;;;;5000074;28;20157;-70
2022/08/07 03:20:35;;;;;;;3.33;3.13;;;;;;;;;;4996815;28;20080;-70
2022/08/07 03:23:01;;;;;;;3.40;3.20;;;;;;;;;;4999622;28;20030;-71
2022/08/07 03:25:28;;;;;;;3.35;3.10;;;;;;;;;;5004616;28;20037;-70
2022/08/07 03:27:53;;;;;;;3.20;3.00;;;;;;;;;;5003505;28;20032;-70
2022/08/07 03:30:20;;;;;;;3.78;2.83;;;;;;;;;;5004495;28;20388;-70
2022/08/07 03:32:46;;;;;;;3.20;3.00;;;;;;;;;;5003692;28;20026;-70
2022/08/07 03:35:13;;;;;;;3.20;2.90;;;;;;;;;;5000152;28;20030;-70
2022/08/07 03:37:39;;;;;;;3.30;3.08;;;;;;;;;;4996651;28;20366;-70
2022/08/07 03:40:05;;;;;;;3.15;2.95;;;;;;;;;;4976254;28;20441;-70
2022/08/07 03:42:33;;;;;;;3.60;3.30;;;;;;;;;;4997954;28;20033;-70
2022/08/07 03:44:58;;;;;;;3.22;3.03;;;;;;;;;;4996875;28;20687;-70
2022/08/07 03:47:24;;;;;;;3.40;3.20;;;;;;;;;;4996369;28;20030;-71
2022/08/07 03:49:50;;;;;;;4.68;3.28;;;;;;;;;;4997919;28;20472;-70
2022/08/07 03:52:16;;;;;;;3.70;3.40;;;;;;;;;;4997750;28;20484;-70
2022/08/07 03:54:41;;;;;;;4.10;3.83;;;;;;;;;;4996768;28;20030;-70
2022/08/07 03:57:07;;;;;;;3.95;3.17;;;;;;;;;;4980389;28;20027;-70
2022/08/07 03:59:33;;;;;;;3.67;3.30;;;;;;;;;;4997127;28;20042;-70
2022/08/07 04:01:58;;;;;;;3.13;2.75;;;;;;;;;;4994331;28;20077;-70
2022/08/07 04:04:23;;;;;;;3.83;3.53;;;;;;;;;;5001948;28;20067;-70
2022/08/07 04:06:49;;;;;;;3.45;3.22;;;;;;;;;;4998635;28;20026;-70
2022/08/07 04:09:15;;;;;;;4.60;3.05;;;;;;;;;;4995318;28;20121;-72
2022/08/07 04:11:40;;;;;;;3.45;3.25;;;;;;;;;;4995510;28;20121;-70
2022/08/07 04:14:06;;;;;;;3.90;3.50;;;;;;;;;;4997592;28;20054;-71
2022/08/07 04:16:32;;;;;;;12.48;3.50;;;;;;;;;;4999412;28;20040;-70
2022/08/07 04:18:57;;;;;;;3.53;3.33;;;;;;;;;;4995336;28;20025;-70
2022/08/07 04:21:22;;;;;;;3.85;3.55;;;;;;;;;;4985270;28;20030;-70
2022/08/07 04:23:48;;;;;;;5.10;3.78;;;;;;;;;;4999093;28;20022;-70
2022/08/07 04:26:14;;;;;;;3.65;3.33;;;;;;;;;;4997099;28;20476;-70
2022/08/07 04:28:40;;;;;;;3.35;3.15;;;;;;;;;;4984807;28;20065;-70
2022/08/07 04:31:05;;;;;;;4.47;4.15;;;;;;;;;;4999650;28;20018;-70
2022/08/07 04:33:31;;;;;;;3.60;3.40;;;;;;;;;;5005102;28;20037;-70
2022/08/07 04:35:56;;;;;;;3.60;3.33;;;;;;;;;;4985051;28;20476;-70
2022/08/07 04:38:23;;;;;;;4.65;4.13;;;;;;;;;;4999842;28;20426;-70
2022/08/07 04:40:48;;;;;;;3.65;3.35;;;;;;;;;;4999804;28;20116;-70
2022/08/07 04:43:15;;;;;;;6.60;4.00;;;;;;;;;;4998542;28;20026;-70
2022/08/07 04:45:46;;;;;;;3.70;3.50;;;;;;;;;;5002748;28;20068;-70
2022/08/07 04:48:26;;;;;;;4.20;3.53;;;;;;;;;;5003163;28;20392;-70
2022/08/07 04:51:10;;;;;;;4.40;4.00;;;;;;;;;;5000904;28;20033;-70
2022/08/07 04:53:44;;;;;;;4.10;3.80;;;;;;;;;;5000878;28;20131;-70
2022/08/07 04:56:10;;;;;;;4.43;3.80;;;;;;;;;;5001956;28;20064;-70
2022/08/07 04:58:41;;;;;;;3.20;3.00;;;;;;;;;;5000784;28;20761;-70
2022/08/07 05:01:12;;;;;;;7.05;4.35;;;;;;;;;;5004185;28;20025;-70
2022/08/07 05:03:50;;;;;;;3.25;3.03;;;;;;;;;;5000696;28;20028;-71
2022/08/07 05:06:22;;;;;;;3.92;3.33;;;;;;;;;;5000352;28;20029;-71
2022/08/07 05:08:54;;;;;;;5.80;3.45;;;;;;;;;;5000634;28;20483;-71
2022/08/07 05:11:23;;;;;;;4.47;3.80;;;;;;;;;;5000766;28;20022;-71
2022/08/07 05:14:00;;;;;;;3.78;3.38;;;;;;;;;;5001421;28;20068;-71
2022/08/07 05:16:27;;;;;;;3.70;3.40;;;;;;;;;;4975011;28;20438;-71
2022/08/07 05:18:54;;;;;;;3.25;3.05;;;;;;;;;;4999661;28;20394;-71
2022/08/07 05:21:22;;;;;;;3.30;3.10;;;;;;;;;;5004358;28;20472;-70
2022/08/07 05:23:50;;;;;;;4.35;3.50;;;;;;;;;;5000073;28;20570;-71
2022/08/07 05:26:17;;;;;;;3.78;3.47;;;;;;;;;;4997666;28;20128;-71
2022/08/07 05:28:43;;;;;;;5.20;3.38;;;;;;;;;;4999281;28;20080;-71
2022/08/07 05:31:10;;;;;;;3.42;3.20;;;;;;;;;;4981707;28;20464;-71
2022/08/07 05:33:36;;;;;;;5.35;3.25;;;;;;;;;;4999685;28;20383;-71
2022/08/07 05:36:03;;;;;;;3.40;3.20;;;;;;;;;;4999415;28;20030;-71
2022/08/07 05:38:28;;;;;;;3.60;3.35;;;;;;;;;;4998967;28;20034;-70
2022/08/07 05:40:55;;;;;;;3.58;3.35;;;;;;;;;;5000152;28;20026;-71
2022/08/07 05:43:20;;;;;;;4.18;3.70;;;;;;;;;;5000511;28;20382;-71
2022/08/07 05:45:47;;;;;;;3.97;3.67;;;;;;;;;;5001486;28;20694;-71
2022/08/07 05:48:12;;;;;;;3.28;3.00;;;;;;;;;;4998160;28;20061;-70
2022/08/07 05:50:38;;;;;;;3.88;2.90;;;;;;;;;;4988705;28;20148;-69
2022/08/07 05:53:05;;;;;;;3.53;3.00;;;;;;;;;;4999446;28;20491;-69
2022/08/07 05:55:32;;;;;;;3.25;3.03;;;;;;;;;;5000783;28;20034;-72
2022/08/07 05:57:59;;;;;;;4.03;3.67;;;;;;;;;;4999964;28;20112;-71
2022/08/07 06:00:24;;;;;;;3.80;3.50;;;;;;;;;;4999311;28;20124;-70
2022/08/07 06:02:52;;;;;;;5.40;3.35;;;;;;;;;;5000599;28;20249;-70
2022/08/07 06:05:19;;;;;;;3.28;2.97;;;;;;;;;;4999164;28;20133;-72
2022/08/07 06:07:45;;;;;;;3.78;3.47;;;;;;;;;;4998919;28;20041;-71
2022/08/07 06:10:11;;;;;;;3.10;2.90;;;;;;;;;;5001562;28;20034;-70
2022/08/07 06:12:36;;;;;;;3.47;3.17;;;;;;;;;;5003683;28;20642;-70
2022/08/07 06:15:01;;;;;;;3.67;3.35;;;;;;;;;;4997442;28;20038;-71
2022/08/07 06:17:27;;;;;;;3.35;3.15;;;;;;;;;;4998796;28;20503;-70
2022/08/07 06:19:53;;;;;;;5.07;3.28;;;;;;;;;;4999111;28;20445;-70
2022/08/07 06:22:18;;;;;;;4.53;3.90;;;;;;;;;;5001221;28;20072;-70
2022/08/07 06:24:44;;;;;;;4.05;3.65;;;;;;;;;;4999401;28;20467;-70
2022/08/07 06:27:09;;;;;;;3.65;3.35;;;;;;;;;;4998979;28;20030;-70
2022/08/07 06:29:35;;;;;;;3.42;3.22;;;;;;;;;;4977903;28;20078;-70
2022/08/07 06:32:00;;;;;;;3.08;2.78;;;;;;;;;;4994377;28;20034;-69
2022/08/07 06:34:26;;;;;;;4.25;3.22;;;;;;;;;;4978958;28;20401;-70
2022/08/07 06:36:51;;;;;;;3.95;3.13;;;;;;;;;;4978975;28;20030;-71
2022/08/07 06:39:16;;;;;;;3.42;3.20;;;;;;;;;;4978152;28;20033;-70
2022/08/07 06:41:47;;;;;;;3.60;3.30;;;;;;;;;;4994347;28;20522;-69
2022/08/07 06:44:13;;;;;;;3.45;3.15;;;;;;;;;;4977973;28;20116;-71
2022/08/07 06:46:38;;;;;;;3.63;3.33;;;;;;;;;;4980421;28;20034;-69
2022/08/07 06:49:04;;;;;;;3.53;3.22;;;;;;;;;;4978819;28;20091;-70
2022/08/07 06:51:31;;;;;;;3.60;3.00;;;;;;;;;;4982984;28;20058;-70
2022/08/07 06:54:02;;;;;;;3.97;3.33;;;;;;;;;;4982342;28;20125;-68
2022/08/07 06:56:39;;;;;;;5.22;3.05;;;;;;;;;;4977221;28;20038;-70
2022/08/07 06:59:09;;;;;;;4.35;2.97;;;;;;;;;;4983847;28;20109;-72
2022/08/07 07:01:36;;;;;;;2.78;2.58;;;;;;;;;;4984092;28;20045;-72
2022/08/07 07:04:02;;;;;;;3.38;3.15;;;;;;;;;;4983406;28;20048;-71
2022/08/07 07:06:28;;;;;;;3.53;2.90;;;;;;;;;;4978815;28;20030;-72
2022/08/07 07:08:53;;;;;;;3.53;3.25;;;;;;;;;;4977737;28;20089;-73
2022/08/07 07:11:18;;;;;;;3.28;2.97;;;;;;;;;;4977064;28;20037;-73
2022/08/07 07:13:46;;;;;;;3.42;3.13;;;;;;;;;;4977905;28;20034;-73
2022/08/07 07:16:15;;;;;;;3.00;2.22;;;;;;;;;;4980538;28;20038;-74
2022/08/07 07:18:47;;;;;;;3.42;2.83;;;;;;;;;;4979281;28;20041;-72
2022/08/07 07:21:31;;;;;;;3.90;2.40;;;;;;;;;;4980382;28;20555;-72
2022/08/07 07:23:57;;;;;;;3.17;2.85;;;;;;;;;;4976271;28;20026;-71
2022/08/07 07:26:22;;;;;;;3.83;3.53;;;;;;;;;;4976761;28;20072;-71
2022/08/07 07:28:53;;;;;;;3.38;3.00;;;;;;;;;;4987004;28;20496;-71
2022/08/07 07:31:51;;;;;;;3.28;3.00;;;;;;;;;;4999434;28;20069;-73
2022/08/07 07:34:18;;;;;;;2.72;2.53;;;;;;;;;;4953967;28;20266;-69
2022/08/07 07:36:44;;;;;;;3.78;2.80;;;;;;;;;;5000367;28;20464;-71
2022/08/07 07:39:10;;;;;;;2.78;2.50;;;;;;;;;;4997954;28;20030;-70
2022/08/07 07:41:38;;;;;;;3.22;3.00;;;;;;;;;;4996672;28;20495;-72
2022/08/07 07:44:05;;;;;;;3.13;2.88;;;;;;;;;;4997552;28;20464;-72
2022/08/07 07:46:32;;;;;;;3.20;2.90;;;;;;;;;;4997586;28;20033;-71
2022/08/07 07:48:58;;;;;;;2.67;2.47;;;;;;;;;;5001055;28;20479;-72
2022/08/07 07:51:24;;;;;;;3.13;2.83;;;;;;;;;;4995928;28;20547;-70
2022/08/07 07:53:50;;;;;;;3.05;2.85;;;;;;;;;;4997362;28;20025;-62
2022/08/07 07:56:16;;;;;;;3.70;3.40;;;;;;;;;;4999243;28;20460;-65
2022/08/07 07:58:42;;;;;;;4.13;3.75;;;;;;;;;;4975815;28;20101;-71
2022/08/07 08:01:08;;;;;;;3.40;2.83;;;;;;;;;;4998207;28;20037;-69
2022/08/07 08:03:35;;;;;;;3.55;3.22;;;;;;;;;;4998797;28;20116;-67
2022/08/07 08:06:01;;;;;;;4.63;3.15;;;;;;;;;;5000496;28;20596;-67
2022/08/07 08:08:27;;;;;;;3.33;3.08;;;;;;;;;;4979425;28;20487;-69
2022/08/07 08:10:53;;;;;;;4.57;2.70;;;;;;;;;;5000458;28;20065;-64
2022/08/07 08:13:23;;;;;;;4.32;2.75;;;;;;;;;;5000091;28;20048;-71
2022/08/07 08:15:49;;;;;;;4.68;2.35;;;;;;;;;;5005035;28;20038;-69
2022/08/07 08:18:14;;;;;;;4.18;2.65;;;;;;;;;;5006952;28;20089;-70
2022/08/07 08:20:40;;;;;;;3.03;2.13;;;;;;;;;;5001655;28;20219;-71
2022/08/07 08:28:34;;;;;;;3.15;2.75;;;;;;;;;;5000561;28;20054;-71
2022/08/07 08:31:00;;;;;;;2.65;2.45;;;;;;;;;;4981964;28;20029;-71
2022/08/07 08:33:28;;;;;;;3.17;2.78;;;;;;;;;;4999319;28;20577;-70
2022/08/07 08:35:54;;;;;;;4.75;2.53;;;;;;;;;;4999810;28;20028;-69
2022/08/07 08:38:25;;;;;;;3.22;2.80;;;;;;;;;;4975220;28;20044;-71
2022/08/07 08:40:55;;;;;;;6.82;3.13;;;;;;;;;;4999564;28;20030;-71
2022/08/07 08:43:27;;;;;;;3.00;2.75;;;;;;;;;;5000628;28;20023;-71
2022/08/07 08:45:56;;;;;;;3.30;3.10;;;;;;;;;;5001986;28;20088;-71
2022/08/07 08:48:40;;;;;;;6.80;3.15;;;;;;;;;;5001196;28;20026;-71
2022/08/07 08:51:05;;;;;;;2.80;2.58;;;;;;;;;;4999260;28;20489;-70
2022/08/07 08:53:38;;;;;;;3.10;2.30;;;;;;;;;;4997860;28;20037;-70
2022/08/07 08:56:06;;;;;;;2.85;2.60;;;;;;;;;;5003980;28;20487;-70
2022/08/07 08:58:42;;;;;;;2.95;2.75;;;;;;;;;;4997795;28;20060;-70
2022/08/07 09:01:13;;;;;;;2.80;2.60;;;;;;;;;;4998981;28;20638;-70
2022/08/07 09:03:59;;;;;;;3.08;2.88;;;;;;;;;;4982204;28;20029;-71
2022/08/07 09:06:34;;;;;;;3.28;2.90;;;;;;;;;;4964492;28;20053;-71
2022/08/07 09:09:13;;;;;;;5.55;2.75;;;;;;;;;;4973947;28;20080;-71
2022/08/07 09:11:45;;;;;;;3.97;2.63;;;;;;;;;;4986221;28;20036;-71
2022/08/07 09:14:14;;;;;;;3.25;2.60;;;;;;;;;;4999391;28;20034;-70
2022/08/07 09:16:57;;;;;;;3.25;2.97;;;;;;;;;;5000135;28;20261;-70
2022/08/07 09:19:28;;;;;;;3.30;2.85;;;;;;;;;;4999016;28;20033;-71
2022/08/07 09:22:12;;;;;;;2.92;2.55;;;;;;;;;;4999872;28;20529;-72
2022/08/07 09:24:37;;;;;;;3.55;2.75;;;;;;;;;;4984810;28;20427;-71
2022/08/07 09:27:18;;;;;;;3.03;2.80;;;;;;;;;;5000098;28;20026;-71
2022/08/07 09:29:43;;;;;;;4.10;3.15;;;;;;;;;;4998374;28;20057;-71
2022/08/07 09:32:22;;;;;;;3.45;2.95;;;;;;;;;;5002530;28;20611;-70
2022/08/07 09:35:07;;;;;;;4.65;3.20;;;;;;;;;;4997278;28;20321;-70
2022/08/07 09:37:38;;;;;;;3.50;3.05;;;;;;;;;;5000963;28;20026;-70
2022/08/07 09:40:15;;;;;;;3.20;2.90;;;;;;;;;;4973874;28;20070;-70
2022/08/07 09:42:57;;;;;;;3.05;2.85;;;;;;;;;;5000507;28;20319;-70
2022/08/07 09:45:28;;;;;;;3.03;2.70;;;;;;;;;;4998850;28;20041;-70
2022/08/07 09:48:09;;;;;;;3.20;2.45;;;;;;;;;;4998416;28;20040;-70
2022/08/07 09:50:44;;;;;;;7.13;2.67;;;;;;;;;;5003936;28;20026;-71
2022/08/07 09:53:10;;;;;;;3.67;3.03;;;;;;;;;;5002439;28;20110;-71
2022/08/07 09:55:54;;;;;;;3.08;2.88;;;;;;;;;;4999024;28;20141;-70
2022/08/07 09:58:26;;;;;;;4.13;3.15;;;;;;;;;;4999581;28;20521;-71
2022/08/07 10:01:14;;;;;;;4.82;2.95;;;;;;;;;;5000095;28;20130;-71
2022/08/07 10:04:05;;;;;;;10.48;6.53;;;;;;;;;;4958501;28;20673;-71
2022/08/07 10:06:41;;;;;;;5.00;3.90;;;;;;;;;;4936422;29;20062;-69
2022/08/07 10:09:12;;;;;;;3.08;2.75;;;;;;;;;;4933452;29;20035;-71
2022/08/07 10:11:44;;;;;;;3.55;2.58;;;;;;;;;;4933374;28;20039;-71
2022/08/07 10:14:28;;;;;;;3.53;3.00;;;;;;;;;;4932702;29;20094;-70
2022/08/07 10:17:14;;;;;;;5.20;3.08;;;;;;;;;;4933791;29;20577;-70
2022/08/07 10:20:02;;;;;;;2.83;2.63;;;;;;;;;;4935076;29;20036;-70
2022/08/07 10:22:27;;;;;;;5.03;3.25;;;;;;;;;;4931916;29;20035;-70
2022/08/07 10:25:07;;;;;;;3.42;3.13;;;;;;;;;;4931154;28;20046;-70
2022/08/07 10:27:51;;;;;;;4.93;3.13;;;;;;;;;;4932974;29;20111;-70
2022/08/07 10:30:36;;;;;;;4.53;2.85;;;;;;;;;;4933174;29;20522;-71
2022/08/07 10:33:10;;;;;;;3.33;3.13;;;;;;;;;;4933740;29;20223;-71
2022/08/07 10:36:03;;;;;;;4.65;4.20;;;;;;;;;;4933181;29;20508;-70
2022/08/07 10:38:28;;;;;;;2.85;2.55;;;;;;;;;;4932070;29;20050;-71
2022/08/07 10:40:56;;;;;;;4.25;2.92;;;;;;;;;;4932606;28;20039;-71
2022/08/07 10:43:22;;;;;;;4.45;3.65;;;;;;;;;;4963855;28;20077;-71
2022/08/07 10:45:48;;;;;;;3.55;3.35;;;;;;;;;;4997775;28;20125;-72
2022/08/07 10:48:23;;;;;;;4.03;3.38;;;;;;;;;;4997331;28;20861;-71
2022/08/07 10:50:54;;;;;;;3.28;2.97;;;;;;;;;;4996522;28;20022;-71
2022/08/07 10:53:38;;;;;;;5.38;5.05;;;;;;;;;;4997370;28;20534;-72
2022/08/07 10:56:06;;;;;;;4.90;3.50;;;;;;;;;;4997166;28;20220;-71
2022/08/07 10:58:31;;;;;;;3.72;3.42;;;;;;;;;;4997629;28;20579;-71
2022/08/07 11:01:01;;;;;;;3.45;3.15;;;;;;;;;;4997601;28;20036;-72
2022/08/07 11:03:37;;;;;;;3.55;3.25;;;;;;;;;;4999954;28;20036;-72
2022/08/07 11:06:21;;;;;;;3.38;3.17;;;;;;;;;;5004146;28;20032;-72
2022/08/07 11:08:50;;;;;;;3.70;3.40;;;;;;;;;;4997923;28;20436;-72
2022/08/07 11:11:19;;;;;;;3.63;3.33;;;;;;;;;;4998008;28;20025;-72
2022/08/07 11:13:50;;;;;;;3.88;2.83;;;;;;;;;;4997502;28;20109;-72
2022/08/07 11:16:15;;;;;;;3.13;2.92;;;;;;;;;;4972557;28;20096;-72
2022/08/07 11:18:44;;;;;;;4.15;3.80;;;;;;;;;;4972719;28;20363;-70
2022/08/07 11:21:15;;;;;;;4.57;3.80;;;;;;;;;;4982253;28;20496;-70
2022/08/07 11:23:44;;;;;;;4.50;3.40;;;;;;;;;;4978699;28;20407;-70
2022/08/07 11:26:12;;;;;;;3.15;2.95;;;;;;;;;;4997076;28;20412;-70
2022/08/07 11:28:41;;;;;;;4.60;3.22;;;;;;;;;;4995906;28;20114;-70
2022/08/07 11:31:25;;;;;;;3.10;2.90;;;;;;;;;;4995095;28;20133;-70
2022/08/07 11:33:56;;;;;;;3.58;3.28;;;;;;;;;;4997301;28;20539;-71
2022/08/07 11:36:46;;;;;;;3.13;2.92;;;;;;;;;;4997077;28;20026;-70
2022/08/07 11:39:14;;;;;;;3.60;3.30;;;;;;;;;;4997633;28;20033;-71
2022/08/07 11:42:06;;;;;;;3.20;2.97;;;;;;;;;;4995303;28;20032;-70
2022/08/07 11:44:35;;;;;;;3.58;3.35;;;;;;;;;;4920298;29;20039;-71
2022/08/07 11:47:27;;;;;;;4.00;3.03;;;;;;;;;;4919653;29;20107;-71
2022/08/07 11:50:11;;;;;;;3.53;3.33;;;;;;;;;;4867819;29;20132;-70
2022/08/07 11:52:49;;;;;;;4.45;3.47;;;;;;;;;;4881407;29;20029;-71
2022/08/07 11:55:32;;;;;;;3.50;3.20;;;;;;;;;;4880059;29;20040;-71
2022/08/07 11:58:20;;;;;;;3.70;2.97;;;;;;;;;;4878973;29;20127;-71
2022/08/07 12:00:58;;;;;;;3.22;2.90;;;;;;;;;;4881122;29;20452;-71
2022/08/07 12:03:32;;;;;;;4.38;3.60;;;;;;;;;;4879392;29;20040;-71
2022/08/07 12:06:16;;;;;;;4.20;3.80;;;;;;;;;;4879508;29;20132;-70
2022/08/07 12:08:46;;;;;;;4.25;3.95;;;;;;;;;;4878074;29;20476;-71
2022/08/07 12:11:33;;;;;;;3.38;3.17;;;;;;;;;;4879403;29;20059;-71
2022/08/07 12:14:07;;;;;;;4.18;3.88;;;;;;;;;;4878810;29;20037;-72
2022/08/07 12:16:39;;;;;;;3.15;2.95;;;;;;;;;;4877743;29;20513;-69
2022/08/07 12:19:12;;;;;;;4.80;3.47;;;;;;;;;;4882572;29;20527;-71
2022/08/07 12:21:46;;;;;;;3.67;3.38;;;;;;;;;;4900623;29;20547;-71
2022/08/07 12:24:18;;;;;;;3.28;3.08;;;;;;;;;;4916740;29;20518;-70
2022/08/07 12:26:47;;;;;;;4.90;3.40;;;;;;;;;;4957063;28;20391;-71
2022/08/07 12:29:21;;;;;;;4.35;4.05;;;;;;;;;;4979890;28;20412;-71
2022/08/07 12:31:50;;;;;;;3.97;3.65;;;;;;;;;;4980867;28;20615;-71
2022/08/07 12:34:16;;;;;;;5.50;3.63;;;;;;;;;;4977007;28;20097;-71
2022/08/07 12:36:43;;;;;;;3.75;3.33;;;;;;;;;;4975804;28;20031;-71
2022/08/07 12:39:09;;;;;;;3.53;3.22;;;;;;;;;;4976690;28;20034;-71
2022/08/07 12:41:36;;;;;;;5.03;3.50;;;;;;;;;;4983498;28;20419;-71
2022/08/07 12:44:04;;;;;;;4.00;3.65;;;;;;;;;;4982619;28;20042;-71
2022/08/07 12:46:35;;;;;;;3.85;3.63;;;;;;;;;;4976953;28;20039;-71
2022/08/07 12:49:10;;;;;;;3.90;3.60;;;;;;;;;;4980799;28;20717;-71
2022/08/07 12:51:45;;;;;;;3.53;3.30;;;;;;;;;;4982929;28;20029;-71
2022/08/07 12:54:24;;;;;;;2.90;2.70;;;;;;;;;;4981296;28;20038;-70
2022/08/07 12:56:51;;;;;;;3.53;3.30;;;;;;;;;;4980576;28;20037;-71
2022/08/07 12:59:18;;;;;;;3.90;3.60;;;;;;;;;;4981700;28;20383;-71
2022/08/07 13:01:51;;;;;;;4.00;3.60;;;;;;;;;;4981267;28;20030;-71
2022/08/07 13:04:35;;;;;;;3.58;3.38;;;;;;;;;;4982103;28;20166;-72
2022/08/07 13:07:07;;;;;;;3.30;2.88;;;;;;;;;;4979976;28;20105;-71
2022/08/07 13:09:51;;;;;;;3.33;3.05;;;;;;;;;;4980268;28;20072;-71
2022/08/07 13:12:35;;;;;;;3.80;3.30;;;;;;;;;;4979874;28;20076;-71
2022/08/07 13:15:01;;;;;;;3.22;3.03;;;;;;;;;;4978889;28;20066;-71
2022/08/07 13:17:32;;;;;;;3.40;3.20;;;;;;;;;;4981610;28;20101;-71
2022/08/07 13:20:23;;;;;;;3.45;3.25;;;;;;;;;;5000391;28;20030;-70
2022/08/07 13:22:54;;;;;;;3.55;3.35;;;;;;;;;;4980801;28;20145;-71
2022/08/07 13:25:29;;;;;;;5.15;3.60;;;;;;;;;;4980064;28;20419;-71
2022/08/07 13:28:01;;;;;;;3.53;3.33;;;;;;;;;;4983808;28;20056;-72
2022/08/07 13:30:26;;;;;;;3.80;3.50;;;;;;;;;;5005039;28;20559;-70
2022/08/07 13:33:04;;;;;;;3.60;3.30;;;;;;;;;;5002307;28;20034;-71
2022/08/07 13:35:37;;;;;;;3.58;3.28;;;;;;;;;;4998550;28;20030;-70
2022/08/07 13:38:03;;;;;;;3.42;3.13;;;;;;;;;;5002755;28;20124;-71
2022/08/07 13:40:30;;;;;;;3.03;2.88;;;;;;;;;;4998716;28;20157;-70
2022/08/07 13:42:57;;;;;;;3.83;3.25;;;;;;;;;;4999338;28;20525;-71
2022/08/07 13:45:24;;;;;;;3.53;3.22;;;;;;;;;;4998836;28;20053;-71
2022/08/07 13:47:54;;;;;;;3.45;3.10;;;;;;;;;;5004400;28;20040;-71
2022/08/07 13:50:22;;;;;;;3.97;3.10;;;;;;;;;;4974516;28;20391;-72
2022/08/07 13:52:48;;;;;;;3.53;3.22;;;;;;;;;;4998721;28;20491;-71
2022/08/07 13:55:15;;;;;;;3.85;3.47;;;;;;;;;;4997515;28;20321;-71
2022/08/07 13:57:41;;;;;;;3.63;3.33;;;;;;;;;;4997209;28;20825;-71
2022/08/07 14:00:08;;;;;;;4.40;3.70;;;;;;;;;;4999204;28;20143;-70
2022/08/07 14:02:33;;;;;;;4.88;4.35;;;;;;;;;;4998146;28;20038;-71
2022/08/07 14:05:02;;;;;;;3.63;3.22;;;;;;;;;;5000866;28;20556;-71
2022/08/07 14:07:29;;;;;;;4.40;4.00;;;;;;;;;;5003910;28;20107;-70
2022/08/07 14:09:57;;;;;;;4.00;3.58;;;;;;;;;;4998574;28;20101;-70
2022/08/07 14:12:25;;;;;;;5.70;4.25;;;;;;;;;;4997629;28;20390;-72
2022/08/07 14:14:52;;;;;;;3.60;3.33;;;;;;;;;;4999150;28;20112;-70
2022/08/07 14:17:21;;;;;;;3.97;3.67;;;;;;;;;;5005537;28;20076;-71
2022/08/07 14:19:49;;;;;;;3.75;3.55;;;;;;;;;;5003094;28;20132;-70
2022/08/07 14:22:19;;;;;;;4.93;3.35;;;;;;;;;;4998154;28;20526;-71
2022/08/07 14:24:47;;;;;;;3.42;3.13;;;;;;;;;;4997432;28;20519;-72
2022/08/07 14:27:14;;;;;;;3.65;3.40;;;;;;;;;;4998270;28;20113;-72
2022/08/07 14:29:41;;;;;;;4.03;3.28;;;;;;;;;;4997284;28;20069;-71
2022/08/07 14:32:07;;;;;;;4.57;3.60;;;;;;;;;;4997958;28;20112;-71
2022/08/07 14:34:34;;;;;;;4.15;3.58;;;;;;;;;;4997013;28;20163;-71
2022/08/07 14:37:01;;;;;;;4.78;4.47;;;;;;;;;;4981238;28;20030;-71
2022/08/07 14:39:26;;;;;;;4.18;3.88;;;;;;;;;;4996278;28;20026;-71
2022/08/07 14:41:52;;;;;;;3.42;3.13;;;;;;;;;;4997975;28;20077;-72
2022/08/07 14:44:18;;;;;;;3.72;3.45;;;;;;;;;;4983470;28;20105;-70
2022/08/07 14:46:45;;;;;;;3.92;3.63;;;;;;;;;;4997899;28;20117;-72
2022/08/07 14:49:11;;;;;;;3.65;3.35;;;;;;;;;;4999916;28;20080;-72
2022/08/07 14:51:37;;;;;;;3.53;3.13;;;;;;;;;;4996354;28;20018;-71
2022/08/07 14:54:03;;;;;;;4.35;3.70;;;;;;;;;;4997340;28;20467;-70
2022/08/07 14:56:30;;;;;;;16.10;10.23;;;;;;;;;;4997824;28;20464;-71
2022/08/07 14:59:05;;;;;;;3.10;2.88;;;;;;;;;;4998691;28;20029;-72
2022/08/07 15:01:32;;;;;;;3.38;3.17;;;;;;;;;;4996929;28;20041;-71